sensor_id;sensor_type;location;lat;lon;timestamp;P1;durP1;ratioP1;P2;durP2;ratioP2
61487;SDS011;47351;53.326;-6.298;2022-08-01T00:01:33;4.70;;;1.90;;
61487;SDS011;47351;53.326;-6.298;2022-08-01T00:04:14;4.50;;;2.10;;
61487;SDS011;47351;53.326;-6.298;2022-08-01T00:06:51;3.10;;;2.10;;
61487;SDS011;47351;53.326;-6.298;2022-08-01T00:09:22;3.50;;;2.00;;
61487;SDS011;47351;53.326;-6.298;2022-08-01T00:11:54;3.90;;;1.80;;
61487;SDS011;47351;53.326;-6.298;2022-08-01T00:14:27;4.20;;;1.70;;
61487;SDS011;47351;53.326;-6.298;2022-08-01T00:17:02;5.80;;;2.00;;
61487;SDS011;47351;53.326;-6.298;2022-08-01T00:19:37;3.90;;;1.70;;
61487;SDS011;47351;53.326;-6.298;2022-08-01T00:22:11;3.10;;;1.90;;
61487;SDS011;47351;53.326;-6.298;2022-08-01T00:24:52;3.80;;;1.70;;
61487;SDS011;47351;53.326;-6.298;2022-08-01T00:27:37;4.90;;;2.70;;
61487;SDS011;47351;53.326;-6.298;2022-08-01T00:30:34;6.40;;;2.70;;
61487;SDS011;47351;53.326;-6.298;2022-08-01T00:33:09;5.60;;;2.80;;
61487;SDS011;47351;53.326;-6.298;2022-08-01T00:35:42;5.40;;;3.00;;
61487;SDS011;47351;53.326;-6.298;2022-08-01T00:38:14;4.40;;;2.40;;
61487;SDS011;47351;53.326;-6.298;2022-08-01T00:40:45;5.60;;;2.40;;
61487;SDS011;47351;53.326;-6.298;2022-08-01T00:43:37;4.10;;;2.00;;
61487;SDS011;47351;53.326;-6.298;2022-08-01T00:46:09;4.50;;;1.80;;
61487;SDS011;47351;53.326;-6.298;2022-08-01T00:48:54;4.20;;;2.00;;
61487;SDS011;47351;53.326;-6.298;2022-08-01T00:51:45;3.60;;;1.80;;
61487;SDS011;47351;53.326;-6.298;2022-08-01T00:54:17;4.20;;;2.00;;
61487;SDS011;47351;53.326;-6.298;2022-08-01T00:57:00;2.80;;;2.00;;
61487;SDS011;47351;53.326;-6.298;2022-08-01T00:59:43;4.30;;;1.80;;
61487;SDS011;47351;53.326;-6.298;2022-08-01T01:02:26;3.60;;;1.90;;
61487;SDS011;47351;53.326;-6.298;2022-08-01T01:05:18;7.60;;;2.40;;
61487;SDS011;47351;53.326;-6.298;2022-08-01T01:07:54;4.80;;;2.50;;
61487;SDS011;47351;53.326;-6.298;2022-08-01T01:10:37;7.00;;;2.70;;
61487;SDS011;47351;53.326;-6.298;2022-08-01T01:13:18;5.00;;;3.10;;
61487;SDS011;47351;53.326;-6.298;2022-08-01T01:16:39;5.00;;;2.90;;
61487;SDS011;47351;53.326;-6.298;2022-08-01T01:19:16;8.40;;;3.10;;
61487;SDS011;47351;53.326;-6.298;2022-08-01T01:22:21;6.30;;;3.10;;
61487;SDS011;47351;53.326;-6.298;2022-08-01T01:25:09;5.20;;;3.00;;
61487;SDS011;47351;53.326;-6.298;2022-08-01T01:28:02;5.90;;;2.70;;
61487;SDS011;47351;53.326;-6.298;2022-08-01T01:30:40;5.50;;;2.60;;
61487;SDS011;47351;53.326;-6.298;2022-08-01T01:33:34;4.70;;;2.70;;
61487;SDS011;47351;53.326;-6.298;2022-08-01T01:38:49;4.30;;;2.40;;
61487;SDS011;47351;53.326;-6.298;2022-08-01T01:41:25;4.90;;;2.20;;
61487;SDS011;47351;53.326;-6.298;2022-08-01T01:44:10;3.20;;;2.10;;
61487;SDS011;47351;53.326;-6.298;2022-08-01T01:46:52;4.80;;;2.00;;
61487;SDS011;47351;53.326;-6.298;2022-08-01T01:49:33;6.90;;;2.50;;
61487;SDS011;47351;53.326;-6.298;2022-08-01T01:52:16;5.00;;;2.10;;
61487;SDS011;47351;53.326;-6.298;2022-08-01T01:54:48;3.90;;;2.00;;
61487;SDS011;47351;53.326;-6.298;2022-08-01T01:57:24;4.40;;;1.80;;
61487;SDS011;47351;53.326;-6.298;2022-08-01T01:59:57;4.40;;;2.00;;
61487;SDS011;47351;53.326;-6.298;2022-08-01T02:02:31;5.50;;;2.10;;
61487;SDS011;47351;53.326;-6.298;2022-08-01T02:05:06;3.60;;;1.60;;
61487;SDS011;47351;53.326;-6.298;2022-08-01T02:07:41;2.80;;;1.60;;
61487;SDS011;47351;53.326;-6.298;2022-08-01T02:10:50;3.70;;;1.80;;
61487;SDS011;47351;53.326;-6.298;2022-08-01T02:13:53;3.10;;;1.70;;
61487;SDS011;47351;53.326;-6.298;2022-08-01T02:16:39;2.30;;;1.70;;
61487;SDS011;47351;53.326;-6.298;2022-08-01T02:19:12;4.70;;;1.70;;
61487;SDS011;47351;53.326;-6.298;2022-08-01T02:21:56;4.60;;;2.10;;
61487;SDS011;47351;53.326;-6.298;2022-08-01T02:24:31;3.90;;;2.00;;
61487;SDS011;47351;53.326;-6.298;2022-08-01T02:27:28;3.90;;;1.90;;
61487;SDS011;47351;53.326;-6.298;2022-08-01T02:30:24;4.00;;;1.90;;
61487;SDS011;47351;53.326;-6.298;2022-08-01T02:33:05;5.90;;;2.10;;
61487;SDS011;47351;53.326;-6.298;2022-08-01T02:35:43;3.70;;;1.80;;
61487;SDS011;47351;53.326;-6.298;2022-08-01T02:38:40;4.40;;;2.00;;
61487;SDS011;47351;53.326;-6.298;2022-08-01T02:41:16;4.00;;;2.10;;
61487;SDS011;47351;53.326;-6.298;2022-08-01T02:44:00;4.70;;;2.10;;
61487;SDS011;47351;53.326;-6.298;2022-08-01T02:46:40;4.40;;;2.00;;
61487;SDS011;47351;53.326;-6.298;2022-08-01T02:49:17;4.30;;;2.10;;
61487;SDS011;47351;53.326;-6.298;2022-08-01T02:52:19;4.50;;;2.10;;
61487;SDS011;47351;53.326;-6.298;2022-08-01T02:54:53;3.20;;;1.90;;
61487;SDS011;47351;53.326;-6.298;2022-08-01T02:57:50;4.80;;;2.10;;
61487;SDS011;47351;53.326;-6.298;2022-08-01T03:00:28;4.30;;;2.30;;
61487;SDS011;47351;53.326;-6.298;2022-08-01T03:03:05;4.80;;;2.10;;
61487;SDS011;47351;53.326;-6.298;2022-08-01T03:05:38;4.60;;;2.20;;
61487;SDS011;47351;53.326;-6.298;2022-08-01T03:08:12;5.20;;;2.40;;
61487;SDS011;47351;53.326;-6.298;2022-08-01T03:10:46;6.70;;;2.20;;
61487;SDS011;47351;53.326;-6.298;2022-08-01T03:13:21;4.80;;;2.30;;
61487;SDS011;47351;53.326;-6.298;2022-08-01T03:15:54;3.90;;;2.20;;
61487;SDS011;47351;53.326;-6.298;2022-08-01T03:18:48;5.70;;;2.30;;
61487;SDS011;47351;53.326;-6.298;2022-08-01T03:21:28;6.20;;;2.40;;
61487;SDS011;47351;53.326;-6.298;2022-08-01T03:24:14;6.60;;;2.10;;
61487;SDS011;47351;53.326;-6.298;2022-08-01T03:26:50;4.20;;;2.00;;
61487;SDS011;47351;53.326;-6.298;2022-08-01T03:29:26;5.50;;;2.40;;
61487;SDS011;47351;53.326;-6.298;2022-08-01T03:32:02;4.40;;;2.20;;
61487;SDS011;47351;53.326;-6.298;2022-08-01T03:34:35;4.60;;;2.00;;
61487;SDS011;47351;53.326;-6.298;2022-08-01T03:37:25;3.50;;;1.90;;
61487;SDS011;47351;53.326;-6.298;2022-08-01T03:40:23;4.40;;;2.20;;
61487;SDS011;47351;53.326;-6.298;2022-08-01T03:43:09;4.00;;;2.20;;
61487;SDS011;47351;53.326;-6.298;2022-08-01T03:45:58;5.40;;;2.40;;
61487;SDS011;47351;53.326;-6.298;2022-08-01T03:48:36;3.90;;;2.20;;
61487;SDS011;47351;53.326;-6.298;2022-08-01T03:51:27;3.30;;;2.00;;
61487;SDS011;47351;53.326;-6.298;2022-08-01T03:54:01;4.60;;;2.40;;
61487;SDS011;47351;53.326;-6.298;2022-08-01T03:56:40;4.80;;;2.40;;
61487;SDS011;47351;53.326;-6.298;2022-08-01T03:59:20;5.30;;;2.50;;
61487;SDS011;47351;53.326;-6.298;2022-08-01T04:01:56;4.10;;;2.30;;
61487;SDS011;47351;53.326;-6.298;2022-08-01T04:04:29;5.80;;;2.50;;
61487;SDS011;47351;53.326;-6.298;2022-08-01T04:07:04;4.30;;;2.20;;
61487;SDS011;47351;53.326;-6.298;2022-08-01T04:09:50;4.10;;;2.20;;
61487;SDS011;47351;53.326;-6.298;2022-08-01T04:12:22;8.50;;;2.80;;
61487;SDS011;47351;53.326;-6.298;2022-08-01T04:14:58;6.20;;;3.30;;
61487;SDS011;47351;53.326;-6.298;2022-08-01T04:17:52;6.30;;;3.70;;
61487;SDS011;47351;53.326;-6.298;2022-08-01T04:20:23;9.00;;;3.40;;
61487;SDS011;47351;53.326;-6.298;2022-08-01T04:23:36;6.30;;;3.20;;
61487;SDS011;47351;53.326;-6.298;2022-08-01T04:26:11;7.60;;;3.10;;
61487;SDS011;47351;53.326;-6.298;2022-08-01T04:29:07;6.10;;;3.10;;
61487;SDS011;47351;53.326;-6.298;2022-08-01T04:31:56;6.80;;;3.30;;
61487;SDS011;47351;53.326;-6.298;2022-08-01T04:35:30;6.20;;;3.20;;
61487;SDS011;47351;53.326;-6.298;2022-08-01T04:38:25;4.70;;;2.90;;
61487;SDS011;47351;53.326;-6.298;2022-08-01T04:41:38;4.40;;;3.10;;
61487;SDS011;47351;53.326;-6.298;2022-08-01T04:44:34;7.10;;;3.10;;
61487;SDS011;47351;53.326;-6.298;2022-08-01T04:47:06;6.00;;;2.80;;
61487;SDS011;47351;53.326;-6.298;2022-08-01T04:49:40;6.50;;;3.20;;
61487;SDS011;47351;53.326;-6.298;2022-08-01T04:52:38;6.10;;;3.00;;
61487;SDS011;47351;53.326;-6.298;2022-08-01T04:55:14;7.00;;;3.20;;
61487;SDS011;47351;53.326;-6.298;2022-08-01T04:57:52;6.40;;;2.80;;
61487;SDS011;47351;53.326;-6.298;2022-08-01T05:00:28;5.90;;;3.20;;
61487;SDS011;47351;53.326;-6.298;2022-08-01T05:03:13;6.20;;;3.00;;
61487;SDS011;47351;53.326;-6.298;2022-08-01T05:05:48;5.30;;;3.10;;
61487;SDS011;47351;53.326;-6.298;2022-08-01T05:08:32;6.80;;;3.10;;
61487;SDS011;47351;53.326;-6.298;2022-08-01T05:11:15;5.50;;;3.00;;
61487;SDS011;47351;53.326;-6.298;2022-08-01T05:13:52;6.60;;;2.90;;
61487;SDS011;47351;53.326;-6.298;2022-08-01T05:16:27;5.80;;;2.80;;
61487;SDS011;47351;53.326;-6.298;2022-08-01T05:19:23;6.40;;;2.90;;
61487;SDS011;47351;53.326;-6.298;2022-08-01T05:21:58;6.40;;;3.10;;
61487;SDS011;47351;53.326;-6.298;2022-08-01T05:24:34;9.60;;;3.10;;
61487;SDS011;47351;53.326;-6.298;2022-08-01T05:27:09;6.90;;;3.00;;
61487;SDS011;47351;53.326;-6.298;2022-08-01T05:30:07;6.00;;;3.10;;
61487;SDS011;47351;53.326;-6.298;2022-08-01T05:32:46;8.50;;;4.00;;
61487;SDS011;47351;53.326;-6.298;2022-08-01T05:35:26;7.20;;;3.10;;
61487;SDS011;47351;53.326;-6.298;2022-08-01T05:38:34;6.00;;;3.50;;
61487;SDS011;47351;53.326;-6.298;2022-08-01T05:41:09;5.40;;;3.60;;
61487;SDS011;47351;53.326;-6.298;2022-08-01T05:43:53;6.80;;;3.60;;
61487;SDS011;47351;53.326;-6.298;2022-08-01T05:46:24;6.20;;;3.30;;
61487;SDS011;47351;53.326;-6.298;2022-08-01T05:49:13;7.10;;;3.80;;
61487;SDS011;47351;53.326;-6.298;2022-08-01T05:51:48;9.80;;;4.30;;
61487;SDS011;47351;53.326;-6.298;2022-08-01T05:54:32;11.60;;;4.30;;
61487;SDS011;47351;53.326;-6.298;2022-08-01T05:57:27;7.30;;;4.40;;
61487;SDS011;47351;53.326;-6.298;2022-08-01T06:00:23;7.50;;;3.70;;
61487;SDS011;47351;53.326;-6.298;2022-08-01T06:03:06;12.50;;;3.80;;
61487;SDS011;47351;53.326;-6.298;2022-08-01T06:05:42;6.80;;;3.70;;
61487;SDS011;47351;53.326;-6.298;2022-08-01T06:08:22;5.50;;;3.20;;
61487;SDS011;47351;53.326;-6.298;2022-08-01T06:10:56;6.00;;;3.30;;
61487;SDS011;47351;53.326;-6.298;2022-08-01T06:13:36;8.20;;;3.20;;
61487;SDS011;47351;53.326;-6.298;2022-08-01T06:16:27;6.90;;;3.50;;
61487;SDS011;47351;53.326;-6.298;2022-08-01T06:18:59;6.50;;;3.40;;
61487;SDS011;47351;53.326;-6.298;2022-08-01T06:21:36;6.60;;;3.70;;
61487;SDS011;47351;53.326;-6.298;2022-08-01T06:24:10;6.80;;;3.90;;
61487;SDS011;47351;53.326;-6.298;2022-08-01T06:26:45;6.00;;;3.40;;
61487;SDS011;47351;53.326;-6.298;2022-08-01T06:29:16;5.30;;;3.40;;
61487;SDS011;47351;53.326;-6.298;2022-08-01T06:31:48;8.50;;;3.30;;
61487;SDS011;47351;53.326;-6.298;2022-08-01T06:34:30;5.70;;;3.30;;
61487;SDS011;47351;53.326;-6.298;2022-08-01T06:37:13;5.70;;;3.30;;
61487;SDS011;47351;53.326;-6.298;2022-08-01T06:39:44;8.40;;;3.70;;
61487;SDS011;47351;53.326;-6.298;2022-08-01T06:42:18;5.80;;;3.30;;
61487;SDS011;47351;53.326;-6.298;2022-08-01T06:44:49;7.10;;;3.50;;
61487;SDS011;47351;53.326;-6.298;2022-08-01T06:47:21;5.20;;;3.20;;
61487;SDS011;47351;53.326;-6.298;2022-08-01T06:50:13;6.20;;;3.30;;
61487;SDS011;47351;53.326;-6.298;2022-08-01T06:52:55;9.10;;;3.70;;
61487;SDS011;47351;53.326;-6.298;2022-08-01T06:55:27;5.00;;;3.40;;
61487;SDS011;47351;53.326;-6.298;2022-08-01T06:58:06;5.90;;;3.40;;
61487;SDS011;47351;53.326;-6.298;2022-08-01T07:00:38;6.50;;;3.40;;
61487;SDS011;47351;53.326;-6.298;2022-08-01T07:03:20;6.00;;;3.40;;
61487;SDS011;47351;53.326;-6.298;2022-08-01T07:06:12;6.00;;;3.30;;
61487;SDS011;47351;53.326;-6.298;2022-08-01T07:08:45;6.30;;;3.30;;
61487;SDS011;47351;53.326;-6.298;2022-08-01T07:11:27;7.60;;;3.20;;
61487;SDS011;47351;53.326;-6.298;2022-08-01T07:14:02;5.90;;;3.00;;
61487;SDS011;47351;53.326;-6.298;2022-08-01T07:16:34;4.20;;;2.90;;
61487;SDS011;47351;53.326;-6.298;2022-08-01T07:19:08;4.80;;;3.20;;
61487;SDS011;47351;53.326;-6.298;2022-08-01T07:21:40;3.80;;;2.90;;
61487;SDS011;47351;53.326;-6.298;2022-08-01T07:24:40;7.40;;;3.00;;
61487;SDS011;47351;53.326;-6.298;2022-08-01T07:27:13;5.70;;;3.40;;
61487;SDS011;47351;53.326;-6.298;2022-08-01T07:30:06;13.00;;;3.20;;
61487;SDS011;47351;53.326;-6.298;2022-08-01T07:32:39;5.20;;;2.90;;
61487;SDS011;47351;53.326;-6.298;2022-08-01T07:35:10;5.60;;;3.10;;
61487;SDS011;47351;53.326;-6.298;2022-08-01T07:37:45;4.40;;;2.90;;
61487;SDS011;47351;53.326;-6.298;2022-08-01T07:40:26;6.10;;;2.70;;
61487;SDS011;47351;53.326;-6.298;2022-08-01T07:42:58;3.80;;;2.70;;
61487;SDS011;47351;53.326;-6.298;2022-08-01T07:45:43;5.20;;;2.80;;
61487;SDS011;47351;53.326;-6.298;2022-08-01T07:48:17;4.80;;;2.70;;
61487;SDS011;47351;53.326;-6.298;2022-08-01T07:50:52;6.30;;;2.70;;
61487;SDS011;47351;53.326;-6.298;2022-08-01T07:53:24;3.70;;;2.40;;
61487;SDS011;47351;53.326;-6.298;2022-08-01T07:55:55;5.90;;;2.10;;
61487;SDS011;47351;53.326;-6.298;2022-08-01T07:58:28;3.70;;;2.20;;
61487;SDS011;47351;53.326;-6.298;2022-08-01T08:00:59;3.40;;;2.20;;
61487;SDS011;47351;53.326;-6.298;2022-08-01T08:03:31;2.80;;;2.10;;
61487;SDS011;47351;53.326;-6.298;2022-08-01T08:06:03;8.20;;;2.20;;
61487;SDS011;47351;53.326;-6.298;2022-08-01T08:08:35;2.80;;;1.90;;
61487;SDS011;47351;53.326;-6.298;2022-08-01T08:11:06;3.10;;;1.80;;
61487;SDS011;47351;53.326;-6.298;2022-08-01T08:13:38;3.00;;;1.60;;
61487;SDS011;47351;53.326;-6.298;2022-08-01T08:16:09;3.00;;;1.30;;
61487;SDS011;47351;53.326;-6.298;2022-08-01T08:18:40;2.10;;;1.40;;
61487;SDS011;47351;53.326;-6.298;2022-08-01T08:21:12;6.40;;;1.40;;
61487;SDS011;47351;53.326;-6.298;2022-08-01T08:23:43;2.80;;;1.40;;
61487;SDS011;47351;53.326;-6.298;2022-08-01T08:26:31;3.70;;;1.50;;
61487;SDS011;47351;53.326;-6.298;2022-08-01T08:29:03;4.00;;;1.30;;
61487;SDS011;47351;53.326;-6.298;2022-08-01T08:31:34;2.70;;;1.20;;
61487;SDS011;47351;53.326;-6.298;2022-08-01T08:34:19;2.50;;;1.20;;
61487;SDS011;47351;53.326;-6.298;2022-08-01T08:36:51;2.90;;;1.10;;
61487;SDS011;47351;53.326;-6.298;2022-08-01T08:39:26;3.40;;;1.00;;
61487;SDS011;47351;53.326;-6.298;2022-08-01T08:42:09;2.90;;;1.00;;
61487;SDS011;47351;53.326;-6.298;2022-08-01T08:44:41;2.40;;;1.10;;
61487;SDS011;47351;53.326;-6.298;2022-08-01T08:47:13;2.90;;;1.10;;
61487;SDS011;47351;53.326;-6.298;2022-08-01T08:49:48;5.00;;;1.20;;
61487;SDS011;47351;53.326;-6.298;2022-08-01T08:52:21;2.60;;;1.00;;
61487;SDS011;47351;53.326;-6.298;2022-08-01T08:54:53;3.80;;;1.00;;
61487;SDS011;47351;53.326;-6.298;2022-08-01T08:57:27;1.60;;;0.90;;
61487;SDS011;47351;53.326;-6.298;2022-08-01T08:59:59;2.50;;;1.10;;
61487;SDS011;47351;53.326;-6.298;2022-08-01T09:02:31;2.40;;;1.00;;
61487;SDS011;47351;53.326;-6.298;2022-08-01T09:05:03;4.10;;;1.10;;
61487;SDS011;47351;53.326;-6.298;2022-08-01T09:07:35;3.70;;;1.20;;
61487;SDS011;47351;53.326;-6.298;2022-08-01T09:10:07;5.10;;;1.20;;
61487;SDS011;47351;53.326;-6.298;2022-08-01T09:12:39;3.10;;;1.20;;
61487;SDS011;47351;53.326;-6.298;2022-08-01T09:15:38;3.40;;;1.10;;
61487;SDS011;47351;53.326;-6.298;2022-08-01T09:18:28;4.00;;;1.10;;
61487;SDS011;47351;53.326;-6.298;2022-08-01T09:21:12;3.20;;;1.00;;
61487;SDS011;47351;53.326;-6.298;2022-08-01T09:23:47;2.60;;;1.00;;
61487;SDS011;47351;53.326;-6.298;2022-08-01T09:26:28;6.30;;;1.20;;
61487;SDS011;47351;53.326;-6.298;2022-08-01T09:29:02;2.60;;;1.00;;
61487;SDS011;47351;53.326;-6.298;2022-08-01T09:31:40;3.00;;;1.10;;
61487;SDS011;47351;53.326;-6.298;2022-08-01T09:34:15;4.30;;;1.00;;
61487;SDS011;47351;53.326;-6.298;2022-08-01T09:36:53;5.10;;;1.20;;
61487;SDS011;47351;53.326;-6.298;2022-08-01T09:39:28;3.50;;;1.00;;
61487;SDS011;47351;53.326;-6.298;2022-08-01T09:42:17;3.20;;;1.00;;
61487;SDS011;47351;53.326;-6.298;2022-08-01T09:44:56;3.30;;;1.20;;
61487;SDS011;47351;53.326;-6.298;2022-08-01T09:47:37;3.20;;;0.80;;
61487;SDS011;47351;53.326;-6.298;2022-08-01T09:50:11;1.20;;;0.60;;
61487;SDS011;47351;53.326;-6.298;2022-08-01T09:52:51;2.30;;;0.70;;
61487;SDS011;47351;53.326;-6.298;2022-08-01T09:57:55;2.80;;;0.40;;
61487;SDS011;47351;53.326;-6.298;2022-08-01T10:00:39;2.00;;;0.40;;
61487;SDS011;47351;53.326;-6.298;2022-08-01T10:03:22;0.70;;;0.40;;
61487;SDS011;47351;53.326;-6.298;2022-08-01T10:05:55;0.80;;;0.30;;
61487;SDS011;47351;53.326;-6.298;2022-08-01T10:08:26;1.00;;;0.20;;
61487;SDS011;47351;53.326;-6.298;2022-08-01T10:11:14;0.40;;;0.40;;
61487;SDS011;47351;53.326;-6.298;2022-08-01T10:13:46;1.30;;;0.40;;
61487;SDS011;47351;53.326;-6.298;2022-08-01T10:16:18;0.80;;;0.50;;
61487;SDS011;47351;53.326;-6.298;2022-08-01T10:18:50;0.90;;;0.40;;
61487;SDS011;47351;53.326;-6.298;2022-08-01T10:21:24;1.20;;;0.50;;
61487;SDS011;47351;53.326;-6.298;2022-08-01T10:24:20;1.60;;;0.50;;
61487;SDS011;47351;53.326;-6.298;2022-08-01T10:26:55;0.70;;;0.50;;
61487;SDS011;47351;53.326;-6.298;2022-08-01T10:29:40;1.10;;;0.50;;
61487;SDS011;47351;53.326;-6.298;2022-08-01T10:32:35;0.60;;;0.50;;
61487;SDS011;47351;53.326;-6.298;2022-08-01T10:35:08;1.00;;;0.60;;
61487;SDS011;47351;53.326;-6.298;2022-08-01T10:38:05;0.80;;;0.40;;
61487;SDS011;47351;53.326;-6.298;2022-08-01T10:40:40;1.00;;;0.50;;
61487;SDS011;47351;53.326;-6.298;2022-08-01T10:43:13;0.90;;;0.70;;
61487;SDS011;47351;53.326;-6.298;2022-08-01T10:45:49;2.00;;;0.70;;
61487;SDS011;47351;53.326;-6.298;2022-08-01T10:48:24;3.80;;;0.90;;
61487;SDS011;47351;53.326;-6.298;2022-08-01T10:51:03;1.40;;;0.70;;
61487;SDS011;47351;53.326;-6.298;2022-08-01T10:53:49;1.30;;;0.80;;
61487;SDS011;47351;53.326;-6.298;2022-08-01T10:56:27;2.20;;;0.60;;
61487;SDS011;47351;53.326;-6.298;2022-08-01T10:59:12;1.90;;;0.50;;
61487;SDS011;47351;53.326;-6.298;2022-08-01T11:02:28;0.90;;;0.60;;
61487;SDS011;47351;53.326;-6.298;2022-08-01T11:05:02;1.00;;;0.70;;
61487;SDS011;47351;53.326;-6.298;2022-08-01T11:07:46;2.00;;;0.80;;
61487;SDS011;47351;53.326;-6.298;2022-08-01T11:10:24;1.10;;;0.60;;
61487;SDS011;47351;53.326;-6.298;2022-08-01T11:13:01;0.70;;;0.60;;
61487;SDS011;47351;53.326;-6.298;2022-08-01T11:15:35;1.70;;;0.70;;
61487;SDS011;47351;53.326;-6.298;2022-08-01T11:18:30;1.40;;;0.80;;
61487;SDS011;47351;53.326;-6.298;2022-08-01T11:21:04;1.30;;;0.60;;
61487;SDS011;47351;53.326;-6.298;2022-08-01T11:23:56;1.20;;;0.60;;
61487;SDS011;47351;53.326;-6.298;2022-08-01T11:26:27;1.20;;;0.70;;
61487;SDS011;47351;53.326;-6.298;2022-08-01T11:29:15;2.00;;;1.00;;
61487;SDS011;47351;53.326;-6.298;2022-08-01T11:31:50;0.50;;;0.50;;
61487;SDS011;47351;53.326;-6.298;2022-08-01T11:34:21;0.70;;;0.70;;
61487;SDS011;47351;53.326;-6.298;2022-08-01T11:37:25;2.00;;;0.70;;
61487;SDS011;47351;53.326;-6.298;2022-08-01T11:40:17;3.90;;;0.80;;
61487;SDS011;47351;53.326;-6.298;2022-08-01T11:45:51;0.70;;;0.70;;
61487;SDS011;47351;53.326;-6.298;2022-08-01T11:48:25;2.80;;;0.90;;
61487;SDS011;47351;53.326;-6.298;2022-08-01T11:50:58;1.50;;;0.90;;
61487;SDS011;47351;53.326;-6.298;2022-08-01T11:53:31;4.00;;;1.00;;
61487;SDS011;47351;53.326;-6.298;2022-08-01T11:56:11;1.70;;;0.90;;
61487;SDS011;47351;53.326;-6.298;2022-08-01T11:58:45;1.30;;;0.90;;
61487;SDS011;47351;53.326;-6.298;2022-08-01T12:01:20;2.50;;;1.10;;
61487;SDS011;47351;53.326;-6.298;2022-08-01T12:03:56;2.10;;;1.20;;
61487;SDS011;47351;53.326;-6.298;2022-08-01T12:06:28;1.80;;;0.80;;
61487;SDS011;47351;53.326;-6.298;2022-08-01T12:11:49;1.70;;;0.70;;
61487;SDS011;47351;53.326;-6.298;2022-08-01T12:14:23;1.80;;;0.90;;
61487;SDS011;47351;53.326;-6.298;2022-08-01T12:16:55;1.60;;;0.80;;
61487;SDS011;47351;53.326;-6.298;2022-08-01T12:19:29;1.70;;;0.90;;
61487;SDS011;47351;53.326;-6.298;2022-08-01T12:22:08;0.80;;;0.80;;
61487;SDS011;47351;53.326;-6.298;2022-08-01T12:24:41;1.80;;;0.90;;
61487;SDS011;47351;53.326;-6.298;2022-08-01T12:27:24;1.60;;;0.80;;
61487;SDS011;47351;53.326;-6.298;2022-08-01T12:30:00;1.50;;;0.70;;
61487;SDS011;47351;53.326;-6.298;2022-08-01T12:32:35;1.30;;;0.60;;
61487;SDS011;47351;53.326;-6.298;2022-08-01T12:35:08;1.60;;;0.60;;
61487;SDS011;47351;53.326;-6.298;2022-08-01T12:37:46;2.80;;;0.80;;
61487;SDS011;47351;53.326;-6.298;2022-08-01T12:40:19;2.90;;;0.70;;
61487;SDS011;47351;53.326;-6.298;2022-08-01T12:42:52;1.40;;;0.70;;
61487;SDS011;47351;53.326;-6.298;2022-08-01T12:45:27;2.10;;;0.60;;
61487;SDS011;47351;53.326;-6.298;2022-08-01T12:48:00;1.30;;;0.60;;
61487;SDS011;47351;53.326;-6.298;2022-08-01T12:50:36;1.80;;;0.70;;
61487;SDS011;47351;53.326;-6.298;2022-08-01T12:53:12;1.00;;;0.50;;
61487;SDS011;47351;53.326;-6.298;2022-08-01T12:55:52;0.90;;;0.50;;
61487;SDS011;47351;53.326;-6.298;2022-08-01T12:58:31;1.90;;;0.60;;
61487;SDS011;47351;53.326;-6.298;2022-08-01T13:01:04;4.00;;;0.60;;
61487;SDS011;47351;53.326;-6.298;2022-08-01T13:03:58;1.50;;;0.60;;
61487;SDS011;47351;53.326;-6.298;2022-08-01T13:06:34;1.00;;;0.40;;
61487;SDS011;47351;53.326;-6.298;2022-08-01T13:09:06;0.40;;;0.40;;
61487;SDS011;47351;53.326;-6.298;2022-08-01T13:11:40;0.30;;;0.30;;
61487;SDS011;47351;53.326;-6.298;2022-08-01T13:14:31;0.70;;;0.30;;
61487;SDS011;47351;53.326;-6.298;2022-08-01T13:17:08;0.70;;;0.40;;
61487;SDS011;47351;53.326;-6.298;2022-08-01T13:19:43;1.20;;;0.30;;
61487;SDS011;47351;53.326;-6.298;2022-08-01T13:22:15;0.70;;;0.40;;
61487;SDS011;47351;53.326;-6.298;2022-08-01T13:24:47;0.50;;;0.20;;
61487;SDS011;47351;53.326;-6.298;2022-08-01T13:27:21;0.30;;;0.20;;
61487;SDS011;47351;53.326;-6.298;2022-08-01T13:30:21;0.30;;;0.20;;
61487;SDS011;47351;53.326;-6.298;2022-08-01T13:33:00;1.30;;;0.30;;
61487;SDS011;47351;53.326;-6.298;2022-08-01T13:35:39;1.90;;;0.30;;
61487;SDS011;47351;53.326;-6.298;2022-08-01T13:38:11;0.30;;;0.30;;
61487;SDS011;47351;53.326;-6.298;2022-08-01T13:40:44;0.40;;;0.30;;
61487;SDS011;47351;53.326;-6.298;2022-08-01T13:43:22;0.30;;;0.30;;
61487;SDS011;47351;53.326;-6.298;2022-08-01T13:46:17;1.40;;;0.40;;
61487;SDS011;47351;53.326;-6.298;2022-08-01T13:48:49;2.60;;;0.60;;
61487;SDS011;47351;53.326;-6.298;2022-08-01T13:51:24;1.20;;;0.50;;
61487;SDS011;47351;53.326;-6.298;2022-08-01T13:53:55;3.80;;;0.60;;
61487;SDS011;47351;53.326;-6.298;2022-08-01T13:56:28;2.60;;;0.50;;
61487;SDS011;47351;53.326;-6.298;2022-08-01T13:59:10;0.40;;;0.40;;
61487;SDS011;47351;53.326;-6.298;2022-08-01T14:01:49;1.70;;;0.60;;
61487;SDS011;47351;53.326;-6.298;2022-08-01T14:04:21;1.40;;;0.40;;
61487;SDS011;47351;53.326;-6.298;2022-08-01T14:06:55;0.50;;;0.30;;
61487;SDS011;47351;53.326;-6.298;2022-08-01T14:09:32;1.20;;;0.40;;
61487;SDS011;47351;53.326;-6.298;2022-08-01T14:12:28;1.20;;;0.60;;
61487;SDS011;47351;53.326;-6.298;2022-08-01T14:15:00;0.50;;;0.30;;
61487;SDS011;47351;53.326;-6.298;2022-08-01T14:17:32;1.00;;;0.40;;
61487;SDS011;47351;53.326;-6.298;2022-08-01T14:20:05;0.50;;;0.30;;
61487;SDS011;47351;53.326;-6.298;2022-08-01T14:22:37;1.30;;;0.50;;
61487;SDS011;47351;53.326;-6.298;2022-08-01T14:25:09;0.60;;;0.40;;
61487;SDS011;47351;53.326;-6.298;2022-08-01T14:28:01;0.80;;;0.30;;
61487;SDS011;47351;53.326;-6.298;2022-08-01T14:30:37;0.40;;;0.20;;
61487;SDS011;47351;53.326;-6.298;2022-08-01T14:33:11;0.10;;;0.10;;
61487;SDS011;47351;53.326;-6.298;2022-08-01T14:35:43;0.50;;;0.10;;
61487;SDS011;47351;53.326;-6.298;2022-08-01T14:38:35;0.30;;;0.20;;
61487;SDS011;47351;53.326;-6.298;2022-08-01T14:41:07;0.10;;;0.10;;
61487;SDS011;47351;53.326;-6.298;2022-08-01T14:43:38;0.30;;;0.10;;
61487;SDS011;47351;53.326;-6.298;2022-08-01T14:46:10;0.20;;;0.00;;
61487;SDS011;47351;53.326;-6.298;2022-08-01T14:48:42;0.10;;;0.10;;
61487;SDS011;47351;53.326;-6.298;2022-08-01T14:51:13;0.20;;;0.10;;
61487;SDS011;47351;53.326;-6.298;2022-08-01T14:53:45;1.20;;;0.20;;
61487;SDS011;47351;53.326;-6.298;2022-08-01T14:56:20;0.70;;;0.20;;
61487;SDS011;47351;53.326;-6.298;2022-08-01T14:58:51;0.20;;;0.20;;
61487;SDS011;47351;53.326;-6.298;2022-08-01T15:01:23;0.40;;;0.20;;
61487;SDS011;47351;53.326;-6.298;2022-08-01T15:03:55;1.50;;;0.20;;
61487;SDS011;47351;53.326;-6.298;2022-08-01T15:06:26;0.10;;;0.10;;
61487;SDS011;47351;53.326;-6.298;2022-08-01T15:08:59;0.20;;;0.10;;
61487;SDS011;47351;53.326;-6.298;2022-08-01T15:11:35;0.30;;;0.10;;
61487;SDS011;47351;53.326;-6.298;2022-08-01T15:14:06;0.20;;;0.20;;
61487;SDS011;47351;53.326;-6.298;2022-08-01T15:16:55;1.20;;;0.20;;
61487;SDS011;47351;53.326;-6.298;2022-08-01T15:19:27;0.30;;;0.20;;
61487;SDS011;47351;53.326;-6.298;2022-08-01T15:21:59;0.10;;;0.10;;
61487;SDS011;47351;53.326;-6.298;2022-08-01T15:24:30;0.10;;;0.10;;
61487;SDS011;47351;53.326;-6.298;2022-08-01T15:27:02;0.30;;;0.00;;
61487;SDS011;47351;53.326;-6.298;2022-08-01T15:29:34;2.00;;;0.10;;
61487;SDS011;47351;53.326;-6.298;2022-08-01T15:32:06;2.50;;;0.10;;
61487;SDS011;47351;53.326;-6.298;2022-08-01T15:34:38;0.10;;;0.10;;
61487;SDS011;47351;53.326;-6.298;2022-08-01T15:37:11;0.40;;;0.10;;
61487;SDS011;47351;53.326;-6.298;2022-08-01T15:39:42;0.20;;;0.10;;
61487;SDS011;47351;53.326;-6.298;2022-08-01T15:42:15;0.20;;;0.20;;
61487;SDS011;47351;53.326;-6.298;2022-08-01T15:44:54;0.30;;;0.10;;
61487;SDS011;47351;53.326;-6.298;2022-08-01T15:47:25;2.70;;;0.40;;
61487;SDS011;47351;53.326;-6.298;2022-08-01T15:49:57;1.00;;;0.30;;
61487;SDS011;47351;53.326;-6.298;2022-08-01T15:52:30;0.40;;;0.30;;
61487;SDS011;47351;53.326;-6.298;2022-08-01T15:55:01;0.60;;;0.20;;